createdAt,value
2023-01-20T00:01:48.032Z,0.36
2023-01-20T00:04:18.987Z,0.37
2023-01-20T00:06:47.741Z,0.42
2023-01-20T00:09:19.669Z,0.49
2023-01-20T00:11:48.462Z,0.45
2023-01-20T00:14:17.663Z,0.51
2023-01-20T00:16:46.099Z,0.66
2023-01-20T00:19:15.786Z,0.60
2023-01-20T00:21:44.237Z,0.76
2023-01-20T00:24:12.951Z,0.80
2023-01-20T00:26:43.034Z,0.73
2023-01-20T00:29:11.715Z,0.86
2023-01-20T00:31:40.335Z,0.73
2023-01-20T00:34:10.747Z,0.62
2023-01-20T00:36:39.562Z,0.80
2023-01-20T00:39:07.913Z,0.70
2023-01-20T00:41:36.402Z,0.63
2023-01-20T00:44:06.744Z,0.69
2023-01-20T00:46:35.000Z,0.62
2023-01-20T00:49:03.588Z,0.73
2023-01-20T00:51:31.976Z,0.76
2023-01-20T00:54:00.359Z,0.76
2023-01-20T00:56:29.028Z,0.78
2023-01-20T00:58:57.349Z,0.86
2023-01-20T01:01:27.248Z,0.63
2023-01-20T01:03:55.827Z,0.73
2023-01-20T01:06:24.440Z,0.63
2023-01-20T01:08:53.035Z,0.68
2023-01-20T01:11:21.505Z,0.81
2023-01-20T01:13:49.879Z,0.88
2023-01-20T01:16:18.198Z,0.80
2023-01-20T01:18:48.078Z,0.71
2023-01-20T01:21:18.295Z,0.78
2023-01-20T01:23:46.792Z,0.76
2023-01-20T01:26:16.144Z,0.89
2023-01-20T01:28:44.788Z,0.89
2023-01-20T01:31:13.271Z,0.83
2023-01-20T01:33:41.984Z,0.71
2023-01-20T01:36:15.659Z,0.88
2023-01-20T01:38:44.194Z,0.70
2023-01-20T01:41:15.133Z,0.74
2023-01-20T01:44:03.433Z,0.67
2023-01-20T01:46:31.793Z,0.74
2023-01-20T01:49:02.338Z,0.55
2023-01-20T01:51:37.225Z,0.63
2023-01-20T01:54:10.966Z,0.54
2023-01-20T01:56:41.716Z,0.52
2023-01-20T01:59:16.246Z,0.56
2023-01-20T02:01:50.745Z,0.59
2023-01-20T02:04:22.234Z,0.62
2023-01-20T02:06:55.877Z,0.68
2023-01-20T02:09:26.444Z,0.58
2023-01-20T02:11:58.098Z,0.60
2023-01-20T02:14:32.521Z,0.41
2023-01-20T02:17:06.940Z,0.58
2023-01-20T02:20:07.691Z,0.62
2023-01-20T02:22:45.190Z,0.53
2023-01-20T02:26:12.671Z,0.58
2023-01-20T02:29:25.106Z,0.61
2023-01-20T02:32:26.549Z,0.72
2023-01-20T02:35:01.974Z,0.62
2023-01-20T02:37:37.215Z,0.64
2023-01-20T02:40:20.238Z,0.59
2023-01-20T02:42:58.923Z,0.55
2023-01-20T02:45:33.925Z,0.47
2023-01-20T02:48:10.809Z,0.60
2023-01-20T02:50:47.353Z,0.58
2023-01-20T02:53:18.027Z,0.58
2023-01-20T02:55:50.234Z,0.58
2023-01-20T02:58:25.428Z,0.58
2023-01-20T03:00:58.806Z,0.52
2023-01-20T03:03:34.578Z,0.40
2023-01-20T03:06:09.012Z,0.48
2023-01-20T03:08:40.063Z,0.36
2023-01-20T03:11:10.578Z,0.41
2023-01-20T03:13:47.251Z,0.34
2023-01-20T03:16:20.140Z,0.40
2023-01-20T03:18:51.053Z,0.16
2023-01-20T03:21:20.431Z,0.25
2023-01-20T03:23:51.958Z,0.29
2023-01-20T03:26:23.522Z,0.35
2023-01-20T03:28:53.498Z,0.37
2023-01-20T03:31:27.521Z,0.31
2023-01-20T03:34:01.241Z,0.12
2023-01-20T03:36:32.111Z,0.19
2023-01-20T03:39:01.636Z,0.23
2023-01-20T03:41:43.674Z,0.21
2023-01-20T03:44:20.873Z,0.17
2023-01-20T03:46:55.048Z,0.23
2023-01-20T03:49:34.097Z,0.00
2023-01-20T03:52:08.647Z,0.08
2023-01-20T03:54:46.093Z,-0.01
2023-01-20T03:57:20.881Z,0.09
2023-01-20T03:59:52.393Z,0.23
2023-01-20T04:02:21.927Z,0.17
2023-01-20T04:04:54.283Z,0.18
2023-01-20T04:07:26.339Z,0.07
2023-01-20T04:10:01.962Z,0.20
2023-01-20T04:12:30.759Z,0.21
2023-01-20T04:15:02.097Z,0.10
2023-01-20T04:17:31.127Z,0.12
2023-01-20T04:20:05.476Z,0.11
2023-01-20T04:22:40.458Z,0.07
2023-01-20T04:25:16.425Z,0.05
2023-01-20T04:27:44.784Z,0.09
2023-01-20T04:30:15.799Z,0.10
2023-01-20T04:32:44.316Z,-0.02
2023-01-20T04:35:17.192Z,0.05
2023-01-20T04:37:46.015Z,0.15
2023-01-20T04:40:15.034Z,0.26
2023-01-20T04:42:43.912Z,0.21
2023-01-20T04:45:17.315Z,0.07
2023-01-20T04:47:46.174Z,0.15
2023-01-20T04:50:16.861Z,0.22
2023-01-20T04:52:45.730Z,0.18
2023-01-20T04:55:14.982Z,0.22
2023-01-20T04:57:43.780Z,0.11
2023-01-20T05:00:18.678Z,0.11
2023-01-20T05:02:47.616Z,0.09
2023-01-20T05:05:18.052Z,0.12
2023-01-20T05:07:46.562Z,0.11
2023-01-20T05:10:15.028Z,0.17
2023-01-20T05:12:43.592Z,0.21
2023-01-20T05:15:12.920Z,0.11
2023-01-20T05:17:41.781Z,0.18
2023-01-20T05:20:12.597Z,0.17
2023-01-20T05:22:43.067Z,0.14
2023-01-20T05:25:11.697Z,0.13
2023-01-20T05:27:40.325Z,0.09
2023-01-20T05:30:10.782Z,0.19
2023-01-20T05:32:38.975Z,0.21
2023-01-20T05:35:11.369Z,0.28
2023-01-20T05:37:41.178Z,0.19
2023-01-20T05:40:11.779Z,0.21
2023-01-20T05:42:40.789Z,0.18
2023-01-20T05:45:10.476Z,0.00
2023-01-20T05:47:38.906Z,0.04
2023-01-20T05:50:08.874Z,0.15
2023-01-20T05:52:37.188Z,0.22
2023-01-20T05:55:07.689Z,-0.01
2023-01-20T05:57:36.145Z,-0.05
2023-01-20T06:00:07.932Z,0.08
2023-01-20T06:02:37.257Z,0.11
2023-01-20T06:05:06.827Z,0.17
2023-01-20T06:07:35.354Z,0.13
2023-01-20T06:10:03.883Z,0.18
2023-01-20T06:12:33.882Z,0.04
2023-01-20T06:15:02.419Z,0.08
2023-01-20T06:17:31.174Z,0.11
2023-01-20T06:20:00.467Z,0.12
2023-01-20T06:22:29.025Z,0.14
2023-01-20T06:24:58.073Z,0.25
2023-01-20T06:27:26.287Z,0.11
2023-01-20T06:29:56.491Z,0.06
2023-01-20T06:32:25.056Z,0.08
2023-01-20T06:34:54.012Z,0.07
2023-01-20T06:37:22.524Z,0.09
2023-01-20T06:39:51.223Z,0.02
2023-01-20T06:42:19.613Z,0.04
2023-01-20T06:44:48.164Z,-0.04
2023-01-20T06:47:17.978Z,0.04
2023-01-20T06:49:47.916Z,0.01
2023-01-20T06:52:18.048Z,-0.07
2023-01-20T06:54:46.475Z,0.03
2023-01-20T06:57:14.882Z,-0.05
2023-01-20T06:59:43.122Z,-0.11
2023-01-20T07:02:13.132Z,-0.05
2023-01-20T07:04:43.556Z,-0.03
2023-01-20T07:07:13.907Z,-0.02
2023-01-20T07:09:42.417Z,-0.05
2023-01-20T07:12:10.924Z,-0.04
2023-01-20T07:14:39.669Z,0.05
2023-01-20T07:17:13.179Z,-0.11
2023-01-20T07:19:43.273Z,-0.03
2023-01-20T07:22:11.555Z,-0.02
2023-01-20T07:24:40.254Z,-0.03
2023-01-20T07:27:08.798Z,-0.13
2023-01-20T07:29:38.127Z,-0.14
2023-01-20T07:32:07.031Z,-0.16
2023-01-20T07:34:35.700Z,-0.21
2023-01-20T07:37:05.433Z,-0.18
2023-01-20T07:39:33.983Z,-0.16
2023-01-20T07:42:05.541Z,-0.16
2023-01-20T07:44:34.265Z,-0.24
2023-01-20T07:47:02.906Z,-0.05
2023-01-20T07:49:31.345Z,-0.15
2023-01-20T07:51:59.773Z,-0.02
2023-01-20T07:54:29.561Z,0.03
2023-01-20T07:56:57.785Z,0.10
2023-01-20T07:59:26.769Z,-0.02
2023-01-20T08:01:55.156Z,0.30
2023-01-20T08:04:23.390Z,0.15
2023-01-20T08:06:51.997Z,0.21
2023-01-20T08:09:20.389Z,0.13
2023-01-20T08:11:50.441Z,0.17
2023-01-20T08:14:18.686Z,0.13
2023-01-20T08:16:47.025Z,0.16
2023-01-20T08:19:15.295Z,0.24
2023-01-20T08:21:43.642Z,0.34
2023-01-20T08:24:12.169Z,0.28
2023-01-20T08:26:40.799Z,0.42
2023-01-20T08:29:11.429Z,0.28
2023-01-20T08:31:41.287Z,0.34
2023-01-20T08:34:10.433Z,0.45
2023-01-20T08:36:42.093Z,0.44
2023-01-20T08:39:14.541Z,0.39
2023-01-20T08:41:45.504Z,0.39
2023-01-20T08:44:17.546Z,0.54
2023-01-20T08:46:46.970Z,0.66
2023-01-20T08:49:18.566Z,0.88
2023-01-20T08:51:47.190Z,0.77
2023-01-20T08:54:16.204Z,0.87
2023-01-20T08:56:45.196Z,0.95
2023-01-20T08:59:14.800Z,0.83
2023-01-20T09:01:43.755Z,1.01
2023-01-20T09:04:13.216Z,0.97
2023-01-20T09:06:45.104Z,0.94
2023-01-20T09:09:15.018Z,1.16
2023-01-20T09:11:45.060Z,1.24
2023-01-20T09:14:14.759Z,1.15
2023-01-20T09:16:43.406Z,1.10
2023-01-20T09:19:12.106Z,1.16
2023-01-20T09:21:40.411Z,1.09
2023-01-20T09:24:09.584Z,0.94
2023-01-20T09:26:41.061Z,1.18
2023-01-20T09:29:13.471Z,1.31
2023-01-20T09:31:46.857Z,1.25
2023-01-20T09:34:19.940Z,1.09
2023-01-20T09:36:52.546Z,1.29
2023-01-20T09:39:39.464Z,1.37
2023-01-20T09:42:43.643Z,1.63
2023-01-20T09:45:25.022Z,1.55
2023-01-20T09:48:06.848Z,1.38
2023-01-20T09:51:05.510Z,1.44
2023-01-20T09:53:52.005Z,1.23
2023-01-20T09:56:25.802Z,1.27
2023-01-20T09:59:01.955Z,1.34
2023-01-20T10:01:37.770Z,1.57
2023-01-20T10:04:15.705Z,1.54
2023-01-20T10:06:50.116Z,1.29
2023-01-20T10:09:25.999Z,1.18
2023-01-20T10:12:03.041Z,1.17
2023-01-20T10:14:36.562Z,0.91
2023-01-20T10:17:11.318Z,0.70
2023-01-20T10:19:49.354Z,0.81
2023-01-20T10:22:22.580Z,0.78
2023-01-20T10:24:56.630Z,0.90
2023-01-20T10:27:30.074Z,0.81
2023-01-20T10:30:08.983Z,0.65
2023-01-20T10:32:40.037Z,0.88
2023-01-20T10:35:18.697Z,0.99
2023-01-20T10:37:48.084Z,0.98
2023-01-20T10:40:27.024Z,1.07
2023-01-20T10:43:00.504Z,1.12
2023-01-20T10:45:42.056Z,1.08
2023-01-20T10:48:22.778Z,1.10
2023-01-20T10:51:01.305Z,1.09
2023-01-20T10:53:42.540Z,1.10
2023-01-20T10:56:36.358Z,0.96
2023-01-20T10:59:14.105Z,0.85
2023-01-20T11:01:46.707Z,0.80
2023-01-20T11:04:19.573Z,0.66
2023-01-20T11:06:53.795Z,0.72
2023-01-20T11:09:35.344Z,0.63
2023-01-20T11:12:05.647Z,0.77
2023-01-20T11:14:34.877Z,0.71
2023-01-20T11:17:07.469Z,0.78
2023-01-20T11:19:52.618Z,0.74
2023-01-20T11:22:31.155Z,0.66
2023-01-20T11:25:04.168Z,0.57
2023-01-20T11:27:44.507Z,0.74
2023-01-20T11:30:28.337Z,0.76
2023-01-20T11:33:18.069Z,0.66
2023-01-20T11:36:01.235Z,0.57
2023-01-20T11:38:33.167Z,0.68
2023-01-20T11:41:01.405Z,0.68
2023-01-20T11:43:38.354Z,0.64
2023-01-20T11:46:22.545Z,0.80
2023-01-20T11:48:51.930Z,0.64
2023-01-20T11:51:25.235Z,0.64
2023-01-20T11:54:10.053Z,0.56
2023-01-20T11:56:43.398Z,0.75
2023-01-20T11:59:25.263Z,0.68
2023-01-20T12:02:02.983Z,0.80
2023-01-20T12:04:50.929Z,0.81
2023-01-20T12:07:28.036Z,0.74
2023-01-20T12:10:05.995Z,0.73
2023-01-20T12:12:41.577Z,0.87
2023-01-20T12:15:18.021Z,0.87
2023-01-20T12:17:55.101Z,0.89
2023-01-20T12:20:31.948Z,0.86
2023-01-20T12:23:21.103Z,0.80
2023-01-20T12:25:58.820Z,0.85
2023-01-20T12:28:35.452Z,0.78
2023-01-20T12:31:05.562Z,0.75
2023-01-20T12:33:37.260Z,0.87
2023-01-20T12:36:56.828Z,0.82
2023-01-20T12:39:42.855Z,0.65
2023-01-20T12:43:02.854Z,0.50
2023-01-20T12:45:53.317Z,0.37
2023-01-20T12:48:35.181Z,0.47
2023-01-20T12:51:21.477Z,0.50
2023-01-20T12:54:30.529Z,0.50
2023-01-20T12:57:22.123Z,0.51
2023-01-20T13:00:14.345Z,0.51
2023-01-20T13:03:09.432Z,0.58
2023-01-20T13:06:13.635Z,0.62
2023-01-20T13:08:51.310Z,0.61
2023-01-20T13:11:39.129Z,0.73
2023-01-20T13:14:15.592Z,0.77
2023-01-20T13:16:56.959Z,0.81
2023-01-20T13:19:31.125Z,0.87
2023-01-20T13:22:14.902Z,0.91
2023-01-20T13:24:47.095Z,0.93
2023-01-20T13:27:19.333Z,1.05
2023-01-20T13:29:56.693Z,1.07
2023-01-20T13:32:36.473Z,1.01
2023-01-20T13:35:45.789Z,1.09
2023-01-20T13:38:24.191Z,1.27
2023-01-20T13:40:57.037Z,1.21
2023-01-20T13:43:48.449Z,1.23
2023-01-20T13:46:51.365Z,1.27
2023-01-20T13:49:48.685Z,1.28
2023-01-20T13:52:17.367Z,1.38
2023-01-20T13:54:48.980Z,1.20
2023-01-20T13:57:38.017Z,1.29
2023-01-20T14:00:18.546Z,1.31
2023-01-20T14:02:49.119Z,1.26
2023-01-20T14:05:32.961Z,1.36
2023-01-20T14:08:01.822Z,1.40
2023-01-20T14:10:30.547Z,1.39
2023-01-20T14:12:59.082Z,1.48
2023-01-20T14:15:40.094Z,1.62
2023-01-20T14:18:18.829Z,1.74
2023-01-20T14:21:03.684Z,1.64
2023-01-20T14:23:36.936Z,1.67
2023-01-20T14:26:13.008Z,1.83
2023-01-20T14:28:50.926Z,1.78
2023-01-20T14:31:40.479Z,1.79
2023-01-20T14:34:28.141Z,1.98
2023-01-20T14:37:02.379Z,2.01
2023-01-20T14:39:31.996Z,2.12
2023-01-20T14:42:02.479Z,2.30
2023-01-20T14:44:33.814Z,2.16
2023-01-20T14:47:04.723Z,2.21
2023-01-20T14:49:39.590Z,2.12
2023-01-20T14:52:13.857Z,2.16
2023-01-20T14:54:45.908Z,2.05
2023-01-20T14:57:36.286Z,2.05
2023-01-20T15:00:22.959Z,2.07
2023-01-20T15:03:09.468Z,2.05
2023-01-20T15:05:41.908Z,1.91
2023-01-20T15:08:26.834Z,1.94
2023-01-20T15:11:21.951Z,1.95
2023-01-20T15:14:12.389Z,1.93
2023-01-20T15:16:51.908Z,1.95
2023-01-20T15:19:36.184Z,2.00
2023-01-20T15:22:23.543Z,1.86
2023-01-20T15:24:54.893Z,1.94
2023-01-20T15:27:31.348Z,1.92
2023-01-20T15:30:21.403Z,1.96
2023-01-20T15:32:51.188Z,2.04
2023-01-20T15:35:22.946Z,2.06
2023-01-20T15:37:52.245Z,2.00
2023-01-20T15:40:25.003Z,1.98
2023-01-20T15:42:53.427Z,1.97
2023-01-20T15:45:22.132Z,1.90
2023-01-20T15:47:50.404Z,1.92
2023-01-20T15:50:23.033Z,1.89
2023-01-20T15:52:51.485Z,1.78
2023-01-20T15:55:22.266Z,1.75
2023-01-20T15:57:53.517Z,1.74
2023-01-20T16:00:25.024Z,1.72
2023-01-20T16:02:53.790Z,1.62
2023-01-20T16:05:22.640Z,1.72
2023-01-20T16:07:51.629Z,1.72
2023-01-20T16:10:22.036Z,1.83
2023-01-20T16:12:51.275Z,1.88
2023-01-20T16:15:20.414Z,1.74
2023-01-20T16:17:51.189Z,1.84
2023-01-20T16:20:23.068Z,1.79
2023-01-20T16:22:52.137Z,1.75
2023-01-20T16:25:22.431Z,1.80
2023-01-20T16:27:51.223Z,1.92
2023-01-20T16:30:23.268Z,1.94
2023-01-20T16:32:52.073Z,1.98
2023-01-20T16:35:23.708Z,1.92
2023-01-20T16:37:53.150Z,1.80
2023-01-20T16:40:24.747Z,1.57
2023-01-20T16:42:56.156Z,1.46
2023-01-20T16:45:30.444Z,1.41
2023-01-20T16:47:59.315Z,1.23
2023-01-20T16:50:28.361Z,1.27
2023-01-20T16:52:57.632Z,1.23
2023-01-20T16:55:27.320Z,1.24
2023-01-20T16:57:55.777Z,1.15
2023-01-20T17:00:24.406Z,1.18
2023-01-20T17:02:53.316Z,1.09
2023-01-20T17:05:25.506Z,1.04
2023-01-20T17:07:56.758Z,1.14
2023-01-20T17:10:29.459Z,1.15
2023-01-20T17:12:57.873Z,0.99
2023-01-20T17:15:27.099Z,0.88
2023-01-20T17:17:59.783Z,0.82
2023-01-20T17:20:28.476Z,0.82
2023-01-20T17:22:56.928Z,0.73
2023-01-20T17:25:27.616Z,0.80
2023-01-20T17:27:56.137Z,0.82
2023-01-20T17:30:26.626Z,0.78
2023-01-20T17:32:55.461Z,0.82
2023-01-20T17:35:24.192Z,0.64
2023-01-20T17:37:52.793Z,0.63
2023-01-20T17:40:21.161Z,0.58
2023-01-20T17:42:53.913Z,0.52
2023-01-20T17:45:22.822Z,0.54
2023-01-20T17:47:52.723Z,0.60
2023-01-20T17:50:21.309Z,0.55
2023-01-20T17:52:49.915Z,0.40
2023-01-20T17:55:18.539Z,0.40
2023-01-20T17:57:47.832Z,0.37
2023-01-20T18:00:20.336Z,0.41
2023-01-20T18:02:48.555Z,0.29
2023-01-20T18:05:17.158Z,0.40
2023-01-20T18:07:45.528Z,0.30
2023-01-20T18:10:14.623Z,0.32
2023-01-20T18:12:43.135Z,0.10
2023-01-20T18:15:12.355Z,0.19
2023-01-20T18:17:43.320Z,0.28
2023-01-20T18:20:15.167Z,0.35
2023-01-20T18:22:49.366Z,0.30
2023-01-20T18:25:18.075Z,0.31
2023-01-20T18:27:46.626Z,0.31
2023-01-20T18:30:16.431Z,0.19
2023-01-20T18:32:46.811Z,0.16
2023-01-20T18:35:15.953Z,0.17
2023-01-20T18:37:47.877Z,0.22
2023-01-20T18:40:16.500Z,0.13
2023-01-20T18:42:45.300Z,0.16
2023-01-20T18:45:13.605Z,0.15
2023-01-20T18:47:42.048Z,0.12
2023-01-20T18:50:13.024Z,0.12
2023-01-20T18:52:41.374Z,0.15
2023-01-20T18:55:10.865Z,0.13
2023-01-20T18:57:39.566Z,0.11
2023-01-20T19:00:10.282Z,0.13
2023-01-20T19:02:38.776Z,0.02
2023-01-20T19:05:09.318Z,0.11
2023-01-20T19:07:39.148Z,0.04
2023-01-20T19:10:08.151Z,0.14
2023-01-20T19:12:36.541Z,0.02
2023-01-20T19:15:05.924Z,-0.17
2023-01-20T19:17:34.220Z,-0.01
2023-01-20T19:20:04.389Z,0.02
2023-01-20T19:22:32.579Z,0.04
2023-01-20T19:25:02.383Z,-0.07
2023-01-20T19:27:32.615Z,-0.02
2023-01-20T19:30:01.041Z,-0.21
2023-01-20T19:32:29.435Z,-0.35
2023-01-20T19:34:58.966Z,-0.45
2023-01-20T19:37:28.348Z,-0.35
2023-01-20T19:39:57.073Z,-0.35
2023-01-20T19:42:27.292Z,-0.31
2023-01-20T19:44:55.715Z,-0.30
2023-01-20T19:47:24.298Z,-0.32
2023-01-20T19:49:52.712Z,-0.23
2023-01-20T19:52:21.037Z,-0.18
2023-01-20T19:54:51.718Z,-0.16
2023-01-20T19:57:20.278Z,-0.11
2023-01-20T19:59:51.060Z,-0.21
2023-01-20T20:02:19.772Z,-0.20
2023-01-20T20:04:48.684Z,-0.19
2023-01-20T20:07:17.141Z,-0.19
2023-01-20T20:09:45.446Z,-0.14
2023-01-20T20:12:13.942Z,-0.27
2023-01-20T20:14:42.235Z,-0.31
2023-01-20T20:17:12.112Z,-0.30
2023-01-20T20:19:40.968Z,-0.35
2023-01-20T20:22:09.427Z,-0.35
2023-01-20T20:24:37.722Z,-0.25
2023-01-20T20:27:05.929Z,-0.25
2023-01-20T20:29:34.338Z,-0.34
2023-01-20T20:32:03.189Z,-0.36
2023-01-20T20:34:33.421Z,-0.46
2023-01-20T20:37:02.843Z,-0.40
2023-01-20T20:39:31.110Z,-0.35
2023-01-20T20:42:00.108Z,-0.29
2023-01-20T20:44:28.700Z,-0.44
2023-01-20T20:46:57.894Z,-0.57
2023-01-20T20:49:26.602Z,-0.57
2023-01-20T20:51:56.338Z,-0.60
2023-01-20T20:54:24.806Z,-0.62
2023-01-20T20:56:53.547Z,-0.74
2023-01-20T20:59:25.170Z,-0.72
2023-01-20T21:01:54.703Z,-0.76
2023-01-20T21:04:23.242Z,-0.70
2023-01-20T21:06:51.746Z,-0.61
2023-01-20T21:09:21.834Z,-0.63
2023-01-20T21:11:50.060Z,-0.53
2023-01-20T21:14:21.208Z,-0.63
2023-01-20T21:16:50.609Z,-0.53
2023-01-20T21:19:18.849Z,-0.58
2023-01-20T21:21:47.248Z,-0.55
2023-01-20T21:24:15.483Z,-0.67
2023-01-20T21:26:45.418Z,-0.67
2023-01-20T21:29:14.668Z,-0.66
2023-01-20T21:31:43.293Z,-0.58
2023-01-20T21:34:15.335Z,-0.51
2023-01-20T21:36:43.688Z,-0.59
2023-01-20T21:39:16.168Z,-0.53
2023-01-20T21:41:46.721Z,-0.61
2023-01-20T21:44:32.750Z,-0.54
2023-01-20T21:47:03.238Z,-0.53
2023-01-20T21:49:49.666Z,-0.64
2023-01-20T21:52:37.918Z,-0.80
2023-01-20T21:55:08.731Z,-0.62
2023-01-20T21:57:39.691Z,-0.60
2023-01-20T22:00:10.657Z,-0.66
2023-01-20T22:02:44.809Z,-0.62
2023-01-20T22:05:18.781Z,-0.62
2023-01-20T22:07:48.382Z,-0.72
2023-01-20T22:10:18.058Z,-0.60
2023-01-20T22:12:48.255Z,-0.73
2023-01-20T22:15:16.894Z,-0.72
2023-01-20T22:17:45.321Z,-0.72
2023-01-20T22:20:14.367Z,-0.63
2023-01-20T22:22:43.272Z,-0.77
2023-01-20T22:25:11.797Z,-0.81
2023-01-20T22:27:40.151Z,-0.86
2023-01-20T22:30:12.081Z,-0.91
2023-01-20T22:32:40.602Z,-0.83
2023-01-20T22:35:12.644Z,-0.94
2023-01-20T22:37:41.069Z,-1.05
2023-01-20T22:40:11.368Z,-1.08
2023-01-20T22:42:39.827Z,-0.94
2023-01-20T22:45:11.977Z,-0.92
2023-01-20T22:47:40.568Z,-0.88
2023-01-20T22:50:10.963Z,-1.06
2023-01-20T22:52:39.202Z,-1.07
2023-01-20T22:55:08.798Z,-1.02
2023-01-20T22:57:37.105Z,-0.96
2023-01-20T23:00:08.477Z,-0.99
2023-01-20T23:02:38.835Z,-1.02
2023-01-20T23:05:07.679Z,-1.13
2023-01-20T23:07:37.606Z,-0.98
2023-01-20T23:10:07.304Z,-1.04
2023-01-20T23:12:35.747Z,-1.18
2023-01-20T23:15:04.616Z,-0.96
2023-01-20T23:17:33.703Z,-0.92
2023-01-20T23:20:03.601Z,-1.15
2023-01-20T23:22:32.073Z,-1.11
2023-01-20T23:25:00.444Z,-1.16
2023-01-20T23:27:29.174Z,-1.15
2023-01-20T23:29:57.827Z,-1.34
2023-01-20T23:32:26.417Z,-1.30
2023-01-20T23:34:55.054Z,-1.28
2023-01-20T23:37:25.124Z,-1.24
2023-01-20T23:39:53.423Z,-1.15
2023-01-20T23:42:22.216Z,-1.19
2023-01-20T23:44:50.759Z,-1.18
2023-01-20T23:47:19.103Z,-1.21
2023-01-20T23:49:47.481Z,-1.11
2023-01-20T23:52:16.138Z,-1.07
2023-01-20T23:54:45.924Z,-1.01
2023-01-20T23:57:14.807Z,-1.14
2023-01-20T23:59:43.375Z,-1.12
